PWSweather.com
Personal Weather Stations
Station Observations
MIKESPOST
YorkGB

YorkGB

Lat: 53.9577018, Lon: -1.0822855

Elevation: 0

Station Type: WH1081

High Low Average
Temperature 50.4°F10.2°C 46.9°F8.3°C 48.5°F9.2°C
Dew Point 39.6°F4.2°C 37.0°F2.8°C 38.6°F3.7°C
Winds 5.5 mph 8.9 kmh 0.7 mph 1.1 kmh 3.0 mph SE4.8 kmh SE
Wind Gusts 9.5 mph15.3 kmh 3.9 mph6.3 kmh 6.0 mph9.7 kmh
Humidity 74% 60% 69%
Pressure 30.00 in1015.9 mb 29.89 in1012.2 mb -
Precipitation 0.00 in0.0 mm - -
Hour Temp Dew Point Humidity Winds Wind Gusts Pressure Precip Precip Rate Daily Precip Total
12:00 AM 50.4°F10.2°C 37.0°F2.8°C 60% 1.1 mph SSE1.8 kmh SSE 3.9 mph6.3 kmh 30.00 in1015.9 mb 0.00 in0.0 mm 0.00 in/hr0.0 mm/hr 0.00 in0.0 mm
12:20 AM 49.5°F9.7°C 37.0°F2.8°C 62% 1.1 mph E1.8 kmh E 3.9 mph6.3 kmh 29.99 in1015.6 mb 0.00 in0.0 mm 0.00 in/hr0.0 mm/hr 0.00 in0.0 mm
12:40 AM 49.3°F9.6°C 38.0°F3.3°C 65% 0.7 mph SE1.1 kmh SE 3.9 mph6.3 kmh 29.98 in1015.2 mb 0.00 in0.0 mm 0.00 in/hr0.0 mm/hr 0.00 in0.0 mm
01:00 AM 49.3°F9.6°C 38.4°F3.6°C 66% 2.6 mph E4.2 kmh E 3.9 mph6.3 kmh 29.98 in1015.2 mb 0.00 in0.0 mm 0.00 in/hr0.0 mm/hr 0.00 in0.0 mm
01:20 AM 49.3°F9.6°C 38.8°F3.8°C 67% 3.5 mph SE5.6 kmh SE 5.6 mph9.0 kmh 29.97 in1014.9 mb 0.00 in0.0 mm 0.00 in/hr0.0 mm/hr 0.00 in0.0 mm
01:40 AM 48.6°F9.2°C 38.5°F3.6°C 68% 2.4 mph SE3.9 kmh SE 3.9 mph6.3 kmh 29.97 in1014.9 mb 0.00 in0.0 mm 0.00 in/hr0.0 mm/hr 0.00 in0.0 mm
02:00 AM 48.2°F9.0°C 38.5°F3.6°C 69% 2.6 mph ESE4.2 kmh ESE 3.9 mph6.3 kmh 29.96 in1014.6 mb 0.00 in0.0 mm 0.00 in/hr0.0 mm/hr 0.00 in0.0 mm
02:20 AM 48.2°F9.0°C 38.5°F3.6°C 69% 2.9 mph E4.7 kmh E 3.9 mph6.3 kmh 29.95 in1014.2 mb 0.00 in0.0 mm 0.00 in/hr0.0 mm/hr 0.00 in0.0 mm
02:40 AM 48.4°F9.1°C 39.1°F3.9°C 70% 4.7 mph SE7.6 kmh SE 7.8 mph12.6 kmh 29.94 in1013.9 mb 0.00 in0.0 mm 0.00 in/hr0.0 mm/hr 0.00 in0.0 mm
03:00 AM 48.0°F8.9°C 38.7°F3.7°C 70% 2.5 mph SE4.0 kmh SE 3.9 mph6.3 kmh 29.93 in1013.5 mb 0.00 in0.0 mm 0.00 in/hr0.0 mm/hr 0.00 in0.0 mm
03:20 AM 46.9°F8.3°C 38.0°F3.3°C 71% 1.7 mph SE2.7 kmh SE 5.6 mph9.0 kmh 29.93 in1013.5 mb 0.00 in0.0 mm 0.00 in/hr0.0 mm/hr 0.00 in0.0 mm
03:40 AM 47.3°F8.5°C 39.4°F4.1°C 74% 4.2 mph SE6.8 kmh SE 9.5 mph15.3 kmh 29.92 in1013.2 mb 0.00 in0.0 mm 0.00 in/hr0.0 mm/hr 0.00 in0.0 mm
04:00 AM 47.7°F8.7°C 39.4°F4.1°C 73% 3.3 mph SE5.3 kmh SE 5.6 mph9.0 kmh 29.92 in1013.2 mb 0.00 in0.0 mm 0.00 in/hr0.0 mm/hr 0.00 in0.0 mm
04:20 AM 47.8°F8.8°C 39.6°F4.2°C 73% 4.7 mph SE7.6 kmh SE 5.6 mph9.0 kmh 29.91 in1012.9 mb 0.00 in0.0 mm 0.00 in/hr0.0 mm/hr 0.00 in0.0 mm
04:40 AM 47.7°F8.7°C 39.4°F4.1°C 73% 1.4 mph N2.3 kmh N 3.9 mph6.3 kmh 29.91 in1012.9 mb 0.00 in0.0 mm 0.00 in/hr0.0 mm/hr 0.00 in0.0 mm
05:00 AM 48.6°F9.2°C 39.6°F4.2°C 71% 4.4 mph SE7.1 kmh SE 9.5 mph15.3 kmh 29.90 in1012.5 mb 0.00 in0.0 mm 0.00 in/hr0.0 mm/hr 0.00 in0.0 mm
05:20 AM 49.1°F9.5°C 39.0°F3.9°C 68% 5.5 mph E8.9 kmh E 9.5 mph15.3 kmh 29.89 in1012.2 mb 0.00 in0.0 mm 0.00 in/hr0.0 mm/hr 0.00 in0.0 mm
05:40 AM 50.0°F10.0°C 39.5°F4.2°C 67% 7.0 mph SE11.3 kmh SE 9.5 mph15.3 kmh 29.90 in1012.5 mb 0.00 in0.0 mm 0.00 in/hr0.0 mm/hr 0.00 in0.0 mm
06:00 AM 50.0°F10.0°C 39.9°F4.4°C 68% 5.3 mph E8.5 kmh E 7.8 mph12.6 kmh 29.89 in1012.2 mb 0.00 in0.0 mm 0.00 in/hr0.0 mm/hr 0.00 in0.0 mm
06:20 AM 50.4°F10.2°C 40.2°F4.6°C 68% 4.3 mph SE6.9 kmh SE 9.5 mph15.3 kmh 29.90 in1012.5 mb 0.00 in0.0 mm 0.00 in/hr0.0 mm/hr 0.00 in0.0 mm
06:40 AM 50.7°F10.4°C 40.9°F4.9°C 69% 5.6 mph NE9.0 kmh NE 9.5 mph15.3 kmh 29.90 in1012.5 mb 0.00 in0.0 mm 0.00 in/hr0.0 mm/hr 0.00 in0.0 mm
07:00 AM 51.8°F11.0°C 42.3°F5.7°C 70% 7.8 mph ESE12.6 kmh ESE 13.4 mph21.6 kmh 29.89 in1012.2 mb 0.00 in0.0 mm 0.00 in/hr0.0 mm/hr 0.00 in0.0 mm
07:20 AM 52.2°F11.2°C 42.7°F5.9°C 70% 6.8 mph SE10.9 kmh SE 13.4 mph21.6 kmh 29.90 in1012.5 mb 0.00 in0.0 mm 0.00 in/hr0.0 mm/hr 0.00 in0.0 mm
07:40 AM 52.2°F11.2°C 42.3°F5.7°C 69% 7.2 mph SE11.6 kmh SE 15.1 mph24.3 kmh 29.89 in1012.2 mb 0.00 in0.0 mm 0.00 in/hr0.0 mm/hr 0.00 in0.0 mm
08:00 AM 53.2°F11.8°C 43.0°F6.1°C 68% 7.5 mph NNE12.1 kmh NNE 13.4 mph21.6 kmh 29.90 in1012.5 mb 0.00 in0.0 mm 0.00 in/hr0.0 mm/hr 0.00 in0.0 mm
08:20 AM 54.7°F12.6°C 43.2°F6.2°C 65% 7.1 mph N11.4 kmh N 11.2 mph18.0 kmh 29.89 in1012.2 mb 0.00 in0.0 mm 0.00 in/hr0.0 mm/hr 0.00 in0.0 mm
08:40 AM 54.1°F12.3°C 43.4°F6.3°C 67% 8.5 mph SSW13.7 kmh SSW 17.3 mph27.8 kmh 29.89 in1012.2 mb 0.00 in0.0 mm 0.00 in/hr0.0 mm/hr 0.00 in0.0 mm
09:00 AM 54.7°F12.6°C 43.9°F6.6°C 67% 7.1 mph SE11.4 kmh SE 13.4 mph21.6 kmh 29.89 in1012.2 mb 0.00 in0.0 mm 0.00 in/hr0.0 mm/hr 0.00 in0.0 mm
09:20 AM 55.0°F12.8°C 44.3°F6.8°C 67% 4.5 mph E7.2 kmh E 9.5 mph15.3 kmh 29.89 in1012.2 mb 0.00 in0.0 mm 0.00 in/hr0.0 mm/hr 0.00 in0.0 mm
09:40 AM 54.3°F12.4°C 44.0°F6.7°C 68% 6.0 mph E9.7 kmh E 9.5 mph15.3 kmh 29.89 in1012.2 mb 0.00 in0.0 mm 0.00 in/hr0.0 mm/hr 0.00 in0.0 mm
10:00 AM 53.8°F12.1°C 43.9°F6.6°C 69% 4.1 mph NE6.6 kmh NE 5.6 mph9.0 kmh 29.90 in1012.5 mb 0.00 in0.0 mm 0.00 in/hr0.0 mm/hr 0.00 in0.0 mm
10:20 AM 53.8°F12.1°C 43.5°F6.4°C 68% 7.6 mph SE12.2 kmh SE 13.4 mph21.6 kmh 29.88 in1011.9 mb 0.00 in0.0 mm 0.00 in/hr0.0 mm/hr 0.00 in0.0 mm
10:40 AM 56.8°F13.8°C 44.0°F6.7°C 62% 6.5 mph NE10.5 kmh NE 15.1 mph24.3 kmh 29.88 in1011.9 mb 0.00 in0.0 mm 0.00 in/hr0.0 mm/hr 0.00 in0.0 mm
11:00 AM 57.2°F14.0°C 40.7°F4.8°C 54% 9.0 mph NNW14.5 kmh NNW 17.3 mph27.8 kmh 29.88 in1011.9 mb 0.00 in0.0 mm 0.00 in/hr0.0 mm/hr 0.00 in0.0 mm
11:20 AM 56.3°F13.5°C 39.4°F4.1°C 53% 9.7 mph NE15.6 kmh NE 32.4 mph52.1 kmh 29.88 in1011.9 mb 0.00 in0.0 mm 0.00 in/hr0.0 mm/hr 0.00 in0.0 mm
11:40 AM 53.8°F12.1°C 39.4°F4.1°C 58% 7.8 mph SE12.6 kmh SE 20.7 mph33.3 kmh 29.89 in1012.2 mb 0.00 in0.0 mm 0.00 in/hr0.0 mm/hr 0.00 in0.0 mm
12:00 PM 53.8°F12.1°C 40.7°F4.8°C 61% 7.1 mph SSE11.4 kmh SSE 15.1 mph24.3 kmh 29.88 in1011.9 mb 0.00 in0.0 mm 0.00 in/hr0.0 mm/hr 0.00 in0.0 mm
12:20 PM 54.1°F12.3°C 40.6°F4.8°C 60% 7.6 mph S12.2 kmh S 19.0 mph30.6 kmh 29.88 in1011.9 mb 0.00 in0.0 mm 0.00 in/hr0.0 mm/hr 0.00 in0.0 mm
12:40 PM 54.7°F12.6°C 40.2°F4.6°C 58% 7.0 mph NE11.3 kmh NE 15.1 mph24.3 kmh 29.88 in1011.9 mb 0.00 in0.0 mm 0.00 in/hr0.0 mm/hr 0.00 in0.0 mm
01:00 PM 53.8°F12.1°C 39.8°F4.3°C 59% 6.3 mph SSE10.1 kmh SSE 15.1 mph24.3 kmh 29.89 in1012.2 mb 0.00 in0.0 mm 0.00 in/hr0.0 mm/hr 0.00 in0.0 mm
01:20 PM 53.1°F11.7°C 40.0°F4.4°C 61% 8.1 mph E13.0 kmh E 15.1 mph24.3 kmh 29.87 in1011.5 mb 0.00 in0.0 mm 0.00 in/hr0.0 mm/hr 0.00 in0.0 mm
01:40 PM 53.1°F11.7°C 40.4°F4.7°C 62% 7.6 mph E12.2 kmh E 13.4 mph21.6 kmh 29.87 in1011.5 mb 0.00 in0.0 mm 0.00 in/hr0.0 mm/hr 0.00 in0.0 mm
02:00 PM 55.9°F13.3°C 41.4°F5.2°C 58% 9.5 mph N15.3 kmh N 15.1 mph24.3 kmh 29.87 in1011.5 mb 0.00 in0.0 mm 0.00 in/hr0.0 mm/hr 0.00 in0.0 mm
02:20 PM 55.0°F12.8°C 40.5°F4.7°C 58% 6.4 mph NE10.3 kmh NE 13.4 mph21.6 kmh 29.88 in1011.9 mb 0.00 in0.0 mm 0.00 in/hr0.0 mm/hr 0.00 in0.0 mm
02:40 PM 54.9°F12.7°C 41.7°F5.4°C 61% 7.3 mph N11.7 kmh N 13.4 mph21.6 kmh 29.88 in1011.9 mb 0.00 in0.0 mm 0.00 in/hr0.0 mm/hr 0.00 in0.0 mm
03:00 PM 57.7°F14.3°C 43.1°F6.2°C 58% 9.7 mph E15.6 kmh E 15.1 mph24.3 kmh 29.88 in1011.9 mb 0.00 in0.0 mm 0.00 in/hr0.0 mm/hr 0.00 in0.0 mm
03:20 PM 58.8°F14.9°C 42.7°F5.9°C 55% 10.5 mph NE16.9 kmh NE 19.0 mph30.6 kmh 29.87 in1011.5 mb 0.00 in0.0 mm 0.00 in/hr0.0 mm/hr 0.00 in0.0 mm
03:40 PM 59.0°F15.0°C 42.4°F5.8°C 54% 8.7 mph S14.0 kmh S 20.7 mph33.3 kmh 29.86 in1011.2 mb 0.00 in0.0 mm 0.00 in/hr0.0 mm/hr 0.00 in0.0 mm
04:00 PM 60.1°F15.6°C 43.9°F6.6°C 55% 6.9 mph NNE11.1 kmh NNE 11.2 mph18.0 kmh 29.87 in1011.5 mb 0.00 in0.0 mm 0.00 in/hr0.0 mm/hr 0.00 in0.0 mm
04:20 PM 57.9°F14.4°C 42.3°F5.7°C 56% 12.1 mph E19.5 kmh E 20.7 mph33.3 kmh 29.87 in1011.5 mb 0.00 in0.0 mm 0.00 in/hr0.0 mm/hr 0.00 in0.0 mm
04:40 PM 55.8°F13.2°C 42.5°F5.8°C 61% 6.8 mph N10.9 kmh N 19.0 mph30.6 kmh 29.87 in1011.5 mb 0.00 in0.0 mm 0.00 in/hr0.0 mm/hr 0.00 in0.0 mm
05:00 PM 54.7°F12.6°C 42.8°F6.0°C 64% 6.5 mph NE10.5 kmh NE 15.1 mph24.3 kmh 29.87 in1011.5 mb 0.00 in0.0 mm 0.00 in/hr0.0 mm/hr 0.00 in0.0 mm
05:20 PM 54.1°F12.3°C 42.6°F5.9°C 65% 4.8 mph N7.7 kmh N 11.2 mph18.0 kmh 29.87 in1011.5 mb 0.00 in0.0 mm 0.00 in/hr0.0 mm/hr 0.00 in0.0 mm
05:40 PM 54.0°F12.2°C 42.5°F5.8°C 65% 5.0 mph NE8.0 kmh NE 13.4 mph21.6 kmh 29.87 in1011.5 mb 0.00 in0.0 mm 0.00 in/hr0.0 mm/hr 0.00 in0.0 mm
06:00 PM 53.4°F11.9°C 41.6°F5.3°C 64% 3.9 mph N6.3 kmh N 13.4 mph21.6 kmh 29.87 in1011.5 mb 0.00 in0.0 mm 0.00 in/hr0.0 mm/hr 0.00 in0.0 mm
06:20 PM 52.5°F11.4°C 41.1°F5.1°C 65% 1.1 mph NW1.8 kmh NW 3.9 mph6.3 kmh 29.89 in1012.2 mb 0.00 in0.0 mm 0.00 in/hr0.0 mm/hr 0.00 in0.0 mm
06:40 PM 51.3°F10.7°C 39.5°F4.2°C 64% 1.5 mph WNW2.4 kmh WNW 3.9 mph6.3 kmh 29.89 in1012.2 mb 0.00 in0.0 mm 0.00 in/hr0.0 mm/hr 0.00 in0.0 mm
07:00 PM 49.5°F9.7°C 35.3°F1.8°C 58% 5.0 mph NNW8.0 kmh NNW 7.8 mph12.6 kmh 29.89 in1012.2 mb 0.00 in0.0 mm 0.00 in/hr0.0 mm/hr 0.00 in0.0 mm
07:20 PM 47.7°F8.7°C 34.5°F1.4°C 60% 2.1 mph NE3.4 kmh NE 3.9 mph6.3 kmh 29.90 in1012.5 mb 0.00 in0.0 mm 0.00 in/hr0.0 mm/hr 0.00 in0.0 mm
07:40 PM 46.0°F7.8°C 34.2°F1.2°C 63% 1.3 mph NNW2.1 kmh NNW 1.7 mph2.7 kmh 29.91 in1012.9 mb 0.00 in0.0 mm 0.00 in/hr0.0 mm/hr 0.00 in0.0 mm
08:00 PM 45.3°F7.4°C 33.5°F0.8°C 63% 2.1 mph N3.4 kmh N 3.9 mph6.3 kmh 29.93 in1013.5 mb 0.00 in0.0 mm 0.00 in/hr0.0 mm/hr 0.00 in0.0 mm
08:20 PM 44.8°F7.1°C 33.7°F0.9°C 65% 3.6 mph NNW5.8 kmh NNW 5.6 mph9.0 kmh 29.93 in1013.5 mb 0.00 in0.0 mm 0.00 in/hr0.0 mm/hr 0.00 in0.0 mm
08:40 PM 44.4°F6.9°C 33.4°F0.8°C 65% 3.5 mph N5.6 kmh N 5.6 mph9.0 kmh 29.94 in1013.9 mb 0.00 in0.0 mm 0.00 in/hr0.0 mm/hr 0.00 in0.0 mm
09:00 PM 43.9°F6.6°C 33.6°F0.9°C 67% 3.2 mph NNW5.1 kmh NNW 5.6 mph9.0 kmh 29.94 in1013.9 mb 0.00 in0.0 mm 0.00 in/hr0.0 mm/hr 0.00 in0.0 mm
09:20 PM 43.2°F6.2°C 33.0°F0.6°C 67% 0.8 mph NW1.3 kmh NW 1.7 mph2.7 kmh 29.95 in1014.2 mb 0.00 in0.0 mm 0.00 in/hr0.0 mm/hr 0.00 in0.0 mm
09:40 PM 42.3°F5.7°C 32.8°F0.4°C 69% 1.5 mph NW2.4 kmh NW 3.9 mph6.3 kmh 29.95 in1014.2 mb 0.00 in0.0 mm 0.00 in/hr0.0 mm/hr 0.00 in0.0 mm
10:00 PM 41.5°F5.3°C 32.5°F0.3°C 70% 0.9 mph NW1.4 kmh NW 1.7 mph2.7 kmh 29.95 in1014.2 mb 0.00 in0.0 mm 0.00 in/hr0.0 mm/hr 0.00 in0.0 mm
10:20 PM 40.6°F4.8°C 32.0°F0.0°C 71% 1.1 mph N1.8 kmh N 1.7 mph2.7 kmh 29.95 in1014.2 mb 0.00 in0.0 mm 0.00 in/hr0.0 mm/hr 0.00 in0.0 mm
10:40 PM 40.1°F4.5°C 32.2°F0.1°C 73% 0.7 mph W1.1 kmh W 1.7 mph2.7 kmh 29.96 in1014.6 mb 0.00 in0.0 mm 0.00 in/hr0.0 mm/hr 0.00 in0.0 mm
11:00 PM 39.6°F4.2°C 32.0°F0.0°C 74% 1.4 mph W2.3 kmh W 3.9 mph6.3 kmh 29.97 in1014.9 mb 0.00 in0.0 mm 0.00 in/hr0.0 mm/hr 0.00 in0.0 mm
11:20 PM 39.7°F4.3°C 32.5°F0.3°C 75% 1.5 mph NW2.4 kmh NW 3.9 mph6.3 kmh 29.98 in1015.2 mb 0.00 in0.0 mm 0.00 in/hr0.0 mm/hr 0.00 in0.0 mm
11:40 PM 40.1°F4.5°C 32.8°F0.4°C 75% 1.7 mph NW2.7 kmh NW 3.9 mph6.3 kmh 29.99 in1015.6 mb 0.00 in0.0 mm 0.00 in/hr0.0 mm/hr 0.00 in0.0 mm